Silver Creek, Minnesota
Current Conditions -  °F | °C
As of 6:35 PM on Saturday 25 Oct 2014 (Local Time) from KMGG Reporting Station
Clear Clear  
Wind Chill: 54°   Ceiling: Unl
Heat Index: 54°   Visibility: 10mi
Dew Point: 30°   Wind: 6mph
Humidity: 40%   Direction: 280°W
Pressure: 30.07"   Gusts: NA
Location:  45.31°N, 93.98°W
Report Text: KMGG 252335Z AUTO 28005KT 10SM CLR 12/M01 A3007 RMK AO2 T01201013
Loading
Personal Weather Stations






























Interactive Weather Map
Tropical Storm Tracking
New forecast layout! Learn more

10-Day Weather Forecast

Advertisements
Track Severe Weather on mobile